sensor_id;sensor_type;location;lat;lon;timestamp;P1;durP1;ratioP1;P2;durP2;ratioP2
1020;SDS011;499;42.648;23.270;2023-04-21T00:01:32;2.67;;;2.47;;
1020;SDS011;499;42.648;23.270;2023-04-21T00:03:59;3.37;;;2.60;;
1020;SDS011;499;42.648;23.270;2023-04-21T00:06:27;2.67;;;2.10;;
1020;SDS011;499;42.648;23.270;2023-04-21T00:08:55;2.70;;;2.50;;
1020;SDS011;499;42.648;23.270;2023-04-21T00:11:22;2.13;;;1.87;;
1020;SDS011;499;42.648;23.270;2023-04-21T00:13:49;2.90;;;2.50;;
1020;SDS011;499;42.648;23.270;2023-04-21T00:16:18;2.80;;;2.30;;
1020;SDS011;499;42.648;23.270;2023-04-21T00:18:46;2.27;;;1.93;;
1020;SDS011;499;42.648;23.270;2023-04-21T00:21:13;1.87;;;1.70;;
1020;SDS011;499;42.648;23.270;2023-04-21T00:23:40;2.90;;;2.13;;
1020;SDS011;499;42.648;23.270;2023-04-21T00:26:07;3.17;;;2.10;;
1020;SDS011;499;42.648;23.270;2023-04-21T00:28:34;2.87;;;2.67;;
1020;SDS011;499;42.648;23.270;2023-04-21T00:31:01;2.13;;;1.90;;
1020;SDS011;499;42.648;23.270;2023-04-21T00:33:29;3.17;;;2.60;;
1020;SDS011;499;42.648;23.270;2023-04-21T00:35:56;2.87;;;2.00;;
1020;SDS011;499;42.648;23.270;2023-04-21T00:38:24;2.43;;;2.07;;
1020;SDS011;499;42.648;23.270;2023-04-21T00:40:51;3.73;;;2.33;;
1020;SDS011;499;42.648;23.270;2023-04-21T00:43:18;4.10;;;2.50;;
1020;SDS011;499;42.648;23.270;2023-04-21T00:45:45;3.07;;;2.87;;
1020;SDS011;499;42.648;23.270;2023-04-21T00:48:12;2.67;;;1.90;;
1020;SDS011;499;42.648;23.270;2023-04-21T00:50:40;3.00;;;2.03;;
1020;SDS011;499;42.648;23.270;2023-04-21T00:53:08;2.60;;;2.40;;
1020;SDS011;499;42.648;23.270;2023-04-21T00:55:38;3.13;;;2.40;;
1020;SDS011;499;42.648;23.270;2023-04-21T00:58:05;2.70;;;2.07;;
1020;SDS011;499;42.648;23.270;2023-04-21T01:00:32;2.83;;;2.23;;
1020;SDS011;499;42.648;23.270;2023-04-21T01:03:00;2.40;;;2.20;;
1020;SDS011;499;42.648;23.270;2023-04-21T01:05:27;2.47;;;1.83;;
1020;SDS011;499;42.648;23.270;2023-04-21T01:07:56;2.13;;;1.93;;
1020;SDS011;499;42.648;23.270;2023-04-21T01:10:23;2.00;;;1.80;;
1020;SDS011;499;42.648;23.270;2023-04-21T01:12:50;2.40;;;2.03;;
1020;SDS011;499;42.648;23.270;2023-04-21T01:15:17;2.00;;;1.90;;
1020;SDS011;499;42.648;23.270;2023-04-21T01:17:45;3.70;;;2.87;;
1020;SDS011;499;42.648;23.270;2023-04-21T01:20:13;3.03;;;2.73;;
1020;SDS011;499;42.648;23.270;2023-04-21T01:22:42;2.80;;;2.43;;
1020;SDS011;499;42.648;23.270;2023-04-21T01:25:09;2.97;;;2.70;;
1020;SDS011;499;42.648;23.270;2023-04-21T01:27:37;3.53;;;2.83;;
1020;SDS011;499;42.648;23.270;2023-04-21T01:30:06;3.13;;;2.83;;
1020;SDS011;499;42.648;23.270;2023-04-21T01:32:34;3.13;;;2.83;;
1020;SDS011;499;42.648;23.270;2023-04-21T01:35:02;2.20;;;1.63;;
1020;SDS011;499;42.648;23.270;2023-04-21T01:37:31;2.50;;;2.00;;
1020;SDS011;499;42.648;23.270;2023-04-21T01:40:01;3.27;;;2.97;;
1020;SDS011;499;42.648;23.270;2023-04-21T01:42:30;1.93;;;1.80;;
1020;SDS011;499;42.648;23.270;2023-04-21T01:44:59;2.73;;;2.37;;
1020;SDS011;499;42.648;23.270;2023-04-21T01:47:26;3.63;;;2.20;;
1020;SDS011;499;42.648;23.270;2023-04-21T01:49:53;2.03;;;1.83;;
1020;SDS011;499;42.648;23.270;2023-04-21T01:52:20;2.33;;;2.03;;
1020;SDS011;499;42.648;23.270;2023-04-21T01:54:47;3.00;;;2.30;;
1020;SDS011;499;42.648;23.270;2023-04-21T01:57:16;2.83;;;2.40;;
1020;SDS011;499;42.648;23.270;2023-04-21T01:59:43;2.03;;;1.83;;
1020;SDS011;499;42.648;23.270;2023-04-21T02:02:10;4.00;;;2.30;;
1020;SDS011;499;42.648;23.270;2023-04-21T02:04:37;2.23;;;2.03;;
1020;SDS011;499;42.648;23.270;2023-04-21T02:07:04;2.93;;;2.63;;
1020;SDS011;499;42.648;23.270;2023-04-21T02:09:31;2.73;;;2.30;;
1020;SDS011;499;42.648;23.270;2023-04-21T02:11:58;2.60;;;1.97;;
1020;SDS011;499;42.648;23.270;2023-04-21T02:14:27;2.03;;;1.80;;
1020;SDS011;499;42.648;23.270;2023-04-21T02:16:54;2.50;;;2.30;;
1020;SDS011;499;42.648;23.270;2023-04-21T02:19:21;2.83;;;2.17;;
1020;SDS011;499;42.648;23.270;2023-04-21T02:21:48;2.40;;;2.20;;
1020;SDS011;499;42.648;23.270;2023-04-21T02:24:15;3.20;;;2.53;;
1020;SDS011;499;42.648;23.270;2023-04-21T02:26:43;2.53;;;2.30;;
1020;SDS011;499;42.648;23.270;2023-04-21T02:29:10;2.70;;;2.50;;
1020;SDS011;499;42.648;23.270;2023-04-21T02:31:38;2.50;;;2.13;;
1020;SDS011;499;42.648;23.270;2023-04-21T02:34:05;2.90;;;2.70;;
1020;SDS011;499;42.648;23.270;2023-04-21T02:36:32;2.87;;;2.57;;
1020;SDS011;499;42.648;23.270;2023-04-21T02:38:59;3.00;;;2.03;;
1020;SDS011;499;42.648;23.270;2023-04-21T02:41:28;3.47;;;2.63;;
1020;SDS011;499;42.648;23.270;2023-04-21T02:43:55;2.90;;;2.60;;
1020;SDS011;499;42.648;23.270;2023-04-21T02:46:22;2.30;;;2.10;;
1020;SDS011;499;42.648;23.270;2023-04-21T02:48:50;2.70;;;2.40;;
1020;SDS011;499;42.648;23.270;2023-04-21T02:51:18;2.70;;;2.50;;
1020;SDS011;499;42.648;23.270;2023-04-21T02:53:45;2.87;;;1.73;;
1020;SDS011;499;42.648;23.270;2023-04-21T02:56:12;2.40;;;2.00;;
1020;SDS011;499;42.648;23.270;2023-04-21T02:58:39;2.70;;;2.13;;
1020;SDS011;499;42.648;23.270;2023-04-21T03:01:06;3.03;;;2.67;;
1020;SDS011;499;42.648;23.270;2023-04-21T03:03:33;2.67;;;2.43;;
1020;SDS011;499;42.648;23.270;2023-04-21T03:06:02;3.20;;;2.83;;
1020;SDS011;499;42.648;23.270;2023-04-21T03:08:30;3.03;;;2.30;;
1020;SDS011;499;42.648;23.270;2023-04-21T03:10:58;2.53;;;2.20;;
1020;SDS011;499;42.648;23.270;2023-04-21T03:13:25;3.77;;;3.30;;
1020;SDS011;499;42.648;23.270;2023-04-21T03:15:53;3.30;;;2.37;;
1020;SDS011;499;42.648;23.270;2023-04-21T03:18:20;3.10;;;2.27;;
1020;SDS011;499;42.648;23.270;2023-04-21T03:20:47;2.87;;;2.20;;
1020;SDS011;499;42.648;23.270;2023-04-21T03:23:15;2.37;;;2.13;;
1020;SDS011;499;42.648;23.270;2023-04-21T03:25:42;3.00;;;2.80;;
1020;SDS011;499;42.648;23.270;2023-04-21T03:28:09;3.00;;;2.30;;
1020;SDS011;499;42.648;23.270;2023-04-21T03:30:36;3.07;;;2.43;;
1020;SDS011;499;42.648;23.270;2023-04-21T03:33:04;2.63;;;2.40;;
1020;SDS011;499;42.648;23.270;2023-04-21T03:35:31;2.63;;;2.43;;
1020;SDS011;499;42.648;23.270;2023-04-21T03:37:58;3.10;;;2.10;;
1020;SDS011;499;42.648;23.270;2023-04-21T03:40:27;3.43;;;3.13;;
1020;SDS011;499;42.648;23.270;2023-04-21T03:42:54;5.67;;;2.80;;
1020;SDS011;499;42.648;23.270;2023-04-21T03:45:21;3.53;;;2.97;;
1020;SDS011;499;42.648;23.270;2023-04-21T03:47:51;3.43;;;2.80;;
1020;SDS011;499;42.648;23.270;2023-04-21T03:50:19;2.97;;;2.67;;
1020;SDS011;499;42.648;23.270;2023-04-21T03:52:46;3.40;;;3.00;;
1020;SDS011;499;42.648;23.270;2023-04-21T03:55:13;2.87;;;2.63;;
1020;SDS011;499;42.648;23.270;2023-04-21T03:57:42;4.27;;;3.60;;
1020;SDS011;499;42.648;23.270;2023-04-21T04:00:10;3.10;;;2.40;;
1020;SDS011;499;42.648;23.270;2023-04-21T04:02:38;2.50;;;2.20;;
1020;SDS011;499;42.648;23.270;2023-04-21T04:05:06;2.70;;;2.43;;
1020;SDS011;499;42.648;23.270;2023-04-21T04:07:33;2.93;;;2.17;;
1020;SDS011;499;42.648;23.270;2023-04-21T04:10:01;2.73;;;2.13;;
1020;SDS011;499;42.648;23.270;2023-04-21T04:12:29;3.80;;;3.23;;
1020;SDS011;499;42.648;23.270;2023-04-21T04:14:57;3.97;;;3.30;;
1020;SDS011;499;42.648;23.270;2023-04-21T04:17:24;3.80;;;2.60;;
1020;SDS011;499;42.648;23.270;2023-04-21T04:19:51;2.80;;;2.13;;
1020;SDS011;499;42.648;23.270;2023-04-21T04:22:18;3.20;;;2.90;;
1020;SDS011;499;42.648;23.270;2023-04-21T04:24:45;3.53;;;2.50;;
1020;SDS011;499;42.648;23.270;2023-04-21T04:27:12;2.67;;;2.47;;
1020;SDS011;499;42.648;23.270;2023-04-21T04:29:39;2.97;;;1.90;;
1020;SDS011;499;42.648;23.270;2023-04-21T04:32:09;2.97;;;2.67;;
1020;SDS011;499;42.648;23.270;2023-04-21T04:34:36;3.40;;;3.00;;
1020;SDS011;499;42.648;23.270;2023-04-21T04:37:04;4.10;;;2.30;;
1020;SDS011;499;42.648;23.270;2023-04-21T04:39:31;4.60;;;3.10;;
1020;SDS011;499;42.648;23.270;2023-04-21T04:42:01;3.73;;;2.90;;
1020;SDS011;499;42.648;23.270;2023-04-21T04:44:28;2.60;;;2.00;;
1020;SDS011;499;42.648;23.270;2023-04-21T04:46:56;4.97;;;2.67;;
1020;SDS011;499;42.648;23.270;2023-04-21T04:49:24;2.33;;;2.03;;
1020;SDS011;499;42.648;23.270;2023-04-21T04:51:51;3.03;;;2.80;;
1020;SDS011;499;42.648;23.270;2023-04-21T04:54:18;4.07;;;3.10;;
1020;SDS011;499;42.648;23.270;2023-04-21T04:56:45;3.13;;;2.30;;
1020;SDS011;499;42.648;23.270;2023-04-21T04:59:12;3.70;;;3.27;;
1020;SDS011;499;42.648;23.270;2023-04-21T05:01:40;3.10;;;2.70;;
1020;SDS011;499;42.648;23.270;2023-04-21T05:04:07;2.43;;;2.23;;
1020;SDS011;499;42.648;23.270;2023-04-21T05:06:35;3.20;;;2.90;;
1020;SDS011;499;42.648;23.270;2023-04-21T05:09:02;2.83;;;2.47;;
1020;SDS011;499;42.648;23.270;2023-04-21T05:11:30;3.03;;;2.73;;
1020;SDS011;499;42.648;23.270;2023-04-21T05:13:57;2.93;;;2.37;;
1020;SDS011;499;42.648;23.270;2023-04-21T05:16:24;4.00;;;2.60;;
1020;SDS011;499;42.648;23.270;2023-04-21T05:18:51;3.13;;;2.67;;
1020;SDS011;499;42.648;23.270;2023-04-21T05:21:22;3.80;;;3.13;;
1020;SDS011;499;42.648;23.270;2023-04-21T05:23:53;3.30;;;2.93;;
1020;SDS011;499;42.648;23.270;2023-04-21T05:26:20;2.33;;;2.10;;
1020;SDS011;499;42.648;23.270;2023-04-21T05:28:47;2.37;;;1.93;;
1020;SDS011;499;42.648;23.270;2023-04-21T05:31:15;2.90;;;2.30;;
1020;SDS011;499;42.648;23.270;2023-04-21T05:33:42;2.70;;;2.50;;
1020;SDS011;499;42.648;23.270;2023-04-21T05:36:09;2.40;;;2.20;;
1020;SDS011;499;42.648;23.270;2023-04-21T05:38:36;3.97;;;3.23;;
1020;SDS011;499;42.648;23.270;2023-04-21T05:41:05;3.90;;;3.00;;
1020;SDS011;499;42.648;23.270;2023-04-21T05:43:32;2.57;;;2.37;;
1020;SDS011;499;42.648;23.270;2023-04-21T05:46:00;2.97;;;2.67;;
1020;SDS011;499;42.648;23.270;2023-04-21T05:48:27;3.63;;;3.23;;
1020;SDS011;499;42.648;23.270;2023-04-21T05:51:06;2.53;;;2.30;;
1020;SDS011;499;42.648;23.270;2023-04-21T05:53:36;2.07;;;1.90;;
1020;SDS011;499;42.648;23.270;2023-04-21T05:56:07;3.07;;;2.60;;
1020;SDS011;499;42.648;23.270;2023-04-21T05:58:34;3.53;;;3.13;;
1020;SDS011;499;42.648;23.270;2023-04-21T06:01:01;3.43;;;2.90;;
1020;SDS011;499;42.648;23.270;2023-04-21T06:03:30;4.30;;;3.77;;
1020;SDS011;499;42.648;23.270;2023-04-21T06:05:58;3.13;;;2.83;;
1020;SDS011;499;42.648;23.270;2023-04-21T06:08:26;3.93;;;2.70;;
1020;SDS011;499;42.648;23.270;2023-04-21T06:10:53;3.03;;;2.73;;
1020;SDS011;499;42.648;23.270;2023-04-21T06:13:21;3.60;;;3.07;;
1020;SDS011;499;42.648;23.270;2023-04-21T06:15:48;3.00;;;2.00;;
1020;SDS011;499;42.648;23.270;2023-04-21T06:18:15;3.93;;;2.70;;
1020;SDS011;499;42.648;23.270;2023-04-21T06:20:48;3.37;;;2.27;;
1020;SDS011;499;42.648;23.270;2023-04-21T06:23:15;2.47;;;2.27;;
1020;SDS011;499;42.648;23.270;2023-04-21T06:25:42;3.30;;;2.13;;
1020;SDS011;499;42.648;23.270;2023-04-21T06:28:10;3.07;;;1.63;;
1020;SDS011;499;42.648;23.270;2023-04-21T06:30:39;3.87;;;3.20;;
1020;SDS011;499;42.648;23.270;2023-04-21T06:33:06;3.97;;;2.70;;
1020;SDS011;499;42.648;23.270;2023-04-21T06:35:33;3.47;;;3.03;;
1020;SDS011;499;42.648;23.270;2023-04-21T06:38:00;2.57;;;1.87;;
1020;SDS011;499;42.648;23.270;2023-04-21T06:40:27;2.80;;;2.30;;
1020;SDS011;499;42.648;23.270;2023-04-21T06:42:55;3.20;;;2.90;;
1020;SDS011;499;42.648;23.270;2023-04-21T06:45:22;2.23;;;1.90;;
1020;SDS011;499;42.648;23.270;2023-04-21T06:47:50;3.37;;;2.10;;
1020;SDS011;499;42.648;23.270;2023-04-21T06:50:17;2.63;;;1.93;;
1020;SDS011;499;42.648;23.270;2023-04-21T06:52:44;2.80;;;2.50;;
1020;SDS011;499;42.648;23.270;2023-04-21T06:55:11;3.17;;;2.50;;
1020;SDS011;499;42.648;23.270;2023-04-21T06:57:39;2.50;;;2.03;;
1020;SDS011;499;42.648;23.270;2023-04-21T07:00:06;2.60;;;2.40;;
1020;SDS011;499;42.648;23.270;2023-04-21T07:02:34;4.53;;;3.40;;
1020;SDS011;499;42.648;23.270;2023-04-21T07:05:03;2.37;;;1.90;;
1020;SDS011;499;42.648;23.270;2023-04-21T07:07:30;2.87;;;2.60;;
1020;SDS011;499;42.648;23.270;2023-04-21T07:09:57;5.10;;;1.93;;
1020;SDS011;499;42.648;23.270;2023-04-21T07:12:24;3.67;;;2.07;;
1020;SDS011;499;42.648;23.270;2023-04-21T07:14:51;3.13;;;2.77;;
1020;SDS011;499;42.648;23.270;2023-04-21T07:17:18;2.57;;;2.37;;
1020;SDS011;499;42.648;23.270;2023-04-21T07:19:45;3.40;;;2.07;;
1020;SDS011;499;42.648;23.270;2023-04-21T07:22:14;2.53;;;2.20;;
1020;SDS011;499;42.648;23.270;2023-04-21T07:24:41;2.67;;;2.47;;
1020;SDS011;499;42.648;23.270;2023-04-21T07:27:08;2.80;;;1.90;;
1020;SDS011;499;42.648;23.270;2023-04-21T07:29:35;3.23;;;2.33;;
1020;SDS011;499;42.648;23.270;2023-04-21T07:32:02;2.93;;;2.30;;
1020;SDS011;499;42.648;23.270;2023-04-21T07:34:29;2.50;;;2.30;;
1020;SDS011;499;42.648;23.270;2023-04-21T07:36:56;3.53;;;2.37;;
1020;SDS011;499;42.648;23.270;2023-04-21T07:39:25;3.67;;;2.70;;
1020;SDS011;499;42.648;23.270;2023-04-21T07:41:52;2.77;;;2.33;;
1020;SDS011;499;42.648;23.270;2023-04-21T07:44:19;2.10;;;1.70;;
1020;SDS011;499;42.648;23.270;2023-04-21T07:46:46;3.17;;;2.60;;
1020;SDS011;499;42.648;23.270;2023-04-21T07:49:13;3.27;;;2.60;;
1020;SDS011;499;42.648;23.270;2023-04-21T07:51:41;2.70;;;2.20;;
1020;SDS011;499;42.648;23.270;2023-04-21T07:54:08;2.63;;;2.20;;
1020;SDS011;499;42.648;23.270;2023-04-21T07:56:36;3.47;;;2.57;;
1020;SDS011;499;42.648;23.270;2023-04-21T07:59:04;2.70;;;2.50;;
1020;SDS011;499;42.648;23.270;2023-04-21T08:01:31;2.77;;;2.50;;
1020;SDS011;499;42.648;23.270;2023-04-21T08:03:58;3.23;;;2.60;;
1020;SDS011;499;42.648;23.270;2023-04-21T08:06:25;2.60;;;1.70;;
1020;SDS011;499;42.648;23.270;2023-04-21T08:08:53;1.77;;;1.60;;
1020;SDS011;499;42.648;23.270;2023-04-21T08:11:20;2.20;;;2.00;;
1020;SDS011;499;42.648;23.270;2023-04-21T08:13:49;2.00;;;1.80;;
1020;SDS011;499;42.648;23.270;2023-04-21T08:16:16;2.80;;;2.10;;
1020;SDS011;499;42.648;23.270;2023-04-21T08:18:43;2.07;;;1.73;;
1020;SDS011;499;42.648;23.270;2023-04-21T08:21:10;2.30;;;1.77;;
1020;SDS011;499;42.648;23.270;2023-04-21T08:23:38;2.30;;;1.90;;
1020;SDS011;499;42.648;23.270;2023-04-21T08:26:05;2.40;;;2.00;;
1020;SDS011;499;42.648;23.270;2023-04-21T08:28:32;3.30;;;2.20;;
1020;SDS011;499;42.648;23.270;2023-04-21T08:31:01;3.20;;;2.40;;
1020;SDS011;499;42.648;23.270;2023-04-21T08:33:28;2.53;;;2.13;;
1020;SDS011;499;42.648;23.270;2023-04-21T08:35:55;3.30;;;2.07;;
1020;SDS011;499;42.648;23.270;2023-04-21T08:38:22;2.30;;;2.00;;
1020;SDS011;499;42.648;23.270;2023-04-21T08:40:49;2.43;;;1.90;;
1020;SDS011;499;42.648;23.270;2023-04-21T08:43:17;2.43;;;2.10;;
1020;SDS011;499;42.648;23.270;2023-04-21T08:45:44;2.87;;;1.87;;
1020;SDS011;499;42.648;23.270;2023-04-21T08:48:13;4.27;;;2.17;;
1020;SDS011;499;42.648;23.270;2023-04-21T08:50:44;4.07;;;2.57;;
1020;SDS011;499;42.648;23.270;2023-04-21T08:53:14;2.73;;;2.00;;
1020;SDS011;499;42.648;23.270;2023-04-21T08:55:42;2.30;;;1.80;;
1020;SDS011;499;42.648;23.270;2023-04-21T08:58:09;2.37;;;1.90;;
1020;SDS011;499;42.648;23.270;2023-04-21T09:00:37;6.07;;;2.40;;
1020;SDS011;499;42.648;23.270;2023-04-21T09:03:05;2.17;;;1.97;;
1020;SDS011;499;42.648;23.270;2023-04-21T09:05:34;4.93;;;2.20;;
1020;SDS011;499;42.648;23.270;2023-04-21T09:08:07;2.97;;;1.90;;
1020;SDS011;499;42.648;23.270;2023-04-21T09:10:41;3.03;;;1.97;;
1020;SDS011;499;42.648;23.270;2023-04-21T09:13:10;2.20;;;1.80;;
1020;SDS011;499;42.648;23.270;2023-04-21T09:15:37;1.90;;;1.70;;
1020;SDS011;499;42.648;23.270;2023-04-21T09:18:09;2.37;;;1.93;;
1020;SDS011;499;42.648;23.270;2023-04-21T09:20:40;2.40;;;1.70;;
1020;SDS011;499;42.648;23.270;2023-04-21T09:23:11;2.47;;;1.57;;
1020;SDS011;499;42.648;23.270;2023-04-21T09:25:38;3.07;;;1.93;;
1020;SDS011;499;42.648;23.270;2023-04-21T09:28:06;3.37;;;3.07;;
1020;SDS011;499;42.648;23.270;2023-04-21T09:30:34;2.33;;;1.77;;
1020;SDS011;499;42.648;23.270;2023-04-21T09:33:01;3.17;;;1.83;;
1020;SDS011;499;42.648;23.270;2023-04-21T09:35:31;2.10;;;1.63;;
1020;SDS011;499;42.648;23.270;2023-04-21T09:38:01;1.90;;;1.23;;
1020;SDS011;499;42.648;23.270;2023-04-21T09:40:29;2.37;;;1.80;;
1020;SDS011;499;42.648;23.270;2023-04-21T09:42:58;1.90;;;1.40;;
1020;SDS011;499;42.648;23.270;2023-04-21T09:45:26;2.13;;;1.50;;
1020;SDS011;499;42.648;23.270;2023-04-21T09:47:54;3.40;;;2.20;;
1020;SDS011;499;42.648;23.270;2023-04-21T09:50:22;3.23;;;1.87;;
1020;SDS011;499;42.648;23.270;2023-04-21T09:52:52;2.60;;;1.87;;
1020;SDS011;499;42.648;23.270;2023-04-21T09:55:23;3.03;;;2.30;;
1020;SDS011;499;42.648;23.270;2023-04-21T09:57:54;2.67;;;2.23;;
1020;SDS011;499;42.648;23.270;2023-04-21T10:00:24;4.10;;;2.53;;
1020;SDS011;499;42.648;23.270;2023-04-21T10:02:53;1.90;;;1.53;;
1020;SDS011;499;42.648;23.270;2023-04-21T10:05:22;2.27;;;1.80;;
1020;SDS011;499;42.648;23.270;2023-04-21T10:07:50;2.27;;;1.70;;
1020;SDS011;499;42.648;23.270;2023-04-21T10:10:19;3.07;;;2.00;;
1020;SDS011;499;42.648;23.270;2023-04-21T10:12:51;2.60;;;1.73;;
1020;SDS011;499;42.648;23.270;2023-04-21T10:15:28;2.37;;;1.97;;
1020;SDS011;499;42.648;23.270;2023-04-21T10:20:49;3.03;;;2.10;;
1020;SDS011;499;42.648;23.270;2023-04-21T10:23:27;1.83;;;1.07;;
1020;SDS011;499;42.648;23.270;2023-04-21T10:26:05;2.00;;;1.37;;
1020;SDS011;499;42.648;23.270;2023-04-21T10:28:42;1.80;;;1.30;;
1020;SDS011;499;42.648;23.270;2023-04-21T10:31:21;2.20;;;1.10;;
1020;SDS011;499;42.648;23.270;2023-04-21T10:34:16;1.70;;;1.37;;
1020;SDS011;499;42.648;23.270;2023-04-21T10:36:49;1.90;;;1.30;;
1020;SDS011;499;42.648;23.270;2023-04-21T10:39:32;2.80;;;1.97;;
1020;SDS011;499;42.648;23.270;2023-04-21T10:45:09;2.60;;;1.83;;
1020;SDS011;499;42.648;23.270;2023-04-21T10:47:40;2.33;;;1.70;;
1020;SDS011;499;42.648;23.270;2023-04-21T10:50:10;2.00;;;1.70;;
1020;SDS011;499;42.648;23.270;2023-04-21T10:52:50;2.33;;;1.73;;
1020;SDS011;499;42.648;23.270;2023-04-21T10:55:19;3.63;;;2.10;;
1020;SDS011;499;42.648;23.270;2023-04-21T10:57:49;2.23;;;1.80;;
1020;SDS011;499;42.648;23.270;2023-04-21T11:00:17;2.10;;;1.63;;
1020;SDS011;499;42.648;23.270;2023-04-21T11:02:54;2.33;;;1.70;;
1020;SDS011;499;42.648;23.270;2023-04-21T11:05:29;2.00;;;1.37;;
1020;SDS011;499;42.648;23.270;2023-04-21T11:08:05;2.50;;;1.70;;
1020;SDS011;499;42.648;23.270;2023-04-21T11:13:25;2.07;;;1.40;;
1020;SDS011;499;42.648;23.270;2023-04-21T11:16:01;1.70;;;1.13;;
1020;SDS011;499;42.648;23.270;2023-04-21T11:18:40;2.30;;;1.43;;
1020;SDS011;499;42.648;23.270;2023-04-21T11:21:09;2.13;;;1.47;;
1020;SDS011;499;42.648;23.270;2023-04-21T11:23:40;2.03;;;1.40;;
1020;SDS011;499;42.648;23.270;2023-04-21T11:26:07;2.97;;;2.10;;
1020;SDS011;499;42.648;23.270;2023-04-21T11:28:36;1.80;;;1.40;;
1020;SDS011;499;42.648;23.270;2023-04-21T11:31:05;2.00;;;1.80;;
1020;SDS011;499;42.648;23.270;2023-04-21T11:33:34;1.60;;;1.30;;
1020;SDS011;499;42.648;23.270;2023-04-21T11:36:02;1.93;;;1.10;;
1020;SDS011;499;42.648;23.270;2023-04-21T11:38:35;2.50;;;1.50;;
1020;SDS011;499;42.648;23.270;2023-04-21T11:41:04;1.80;;;1.57;;
1020;SDS011;499;42.648;23.270;2023-04-21T11:43:31;1.97;;;1.50;;
1020;SDS011;499;42.648;23.270;2023-04-21T11:46:11;1.93;;;1.30;;
1020;SDS011;499;42.648;23.270;2023-04-21T11:48:38;2.00;;;1.60;;
1020;SDS011;499;42.648;23.270;2023-04-21T11:51:12;2.90;;;1.73;;
1020;SDS011;499;42.648;23.270;2023-04-21T11:53:40;1.73;;;1.23;;
1020;SDS011;499;42.648;23.270;2023-04-21T11:56:08;2.13;;;1.63;;
1020;SDS011;499;42.648;23.270;2023-04-21T11:58:36;2.13;;;1.50;;
1020;SDS011;499;42.648;23.270;2023-04-21T12:01:06;1.87;;;1.37;;
1020;SDS011;499;42.648;23.270;2023-04-21T12:03:38;1.50;;;1.03;;
1020;SDS011;499;42.648;23.270;2023-04-21T12:06:06;2.30;;;1.50;;
1020;SDS011;499;42.648;23.270;2023-04-21T12:08:33;2.33;;;1.90;;
1020;SDS011;499;42.648;23.270;2023-04-21T12:11:01;1.93;;;1.40;;
1020;SDS011;499;42.648;23.270;2023-04-21T12:13:28;2.80;;;1.60;;
1020;SDS011;499;42.648;23.270;2023-04-21T12:15:56;1.93;;;1.73;;
1020;SDS011;499;42.648;23.270;2023-04-21T12:18:27;2.20;;;1.73;;
1020;SDS011;499;42.648;23.270;2023-04-21T12:21:00;2.43;;;1.77;;
1020;SDS011;499;42.648;23.270;2023-04-21T12:23:27;2.53;;;1.53;;
1020;SDS011;499;42.648;23.270;2023-04-21T12:25:54;1.60;;;1.40;;
1020;SDS011;499;42.648;23.270;2023-04-21T12:28:21;1.93;;;1.10;;
1020;SDS011;499;42.648;23.270;2023-04-21T12:30:48;2.37;;;1.37;;
1020;SDS011;499;42.648;23.270;2023-04-21T12:33:15;1.73;;;1.10;;
1020;SDS011;499;42.648;23.270;2023-04-21T12:35:47;2.57;;;1.83;;
1020;SDS011;499;42.648;23.270;2023-04-21T12:38:17;2.00;;;1.50;;
1020;SDS011;499;42.648;23.270;2023-04-21T12:40:45;1.90;;;1.70;;
1020;SDS011;499;42.648;23.270;2023-04-21T12:43:12;2.33;;;1.67;;
1020;SDS011;499;42.648;23.270;2023-04-21T12:45:39;2.33;;;1.80;;
1020;SDS011;499;42.648;23.270;2023-04-21T12:48:06;1.93;;;1.57;;
1020;SDS011;499;42.648;23.270;2023-04-21T12:50:35;2.10;;;1.50;;
1020;SDS011;499;42.648;23.270;2023-04-21T12:53:02;1.33;;;1.10;;
1020;SDS011;499;42.648;23.270;2023-04-21T12:55:32;1.60;;;1.10;;
1020;SDS011;499;42.648;23.270;2023-04-21T12:58:00;2.60;;;1.47;;
1020;SDS011;499;42.648;23.270;2023-04-21T13:00:27;2.77;;;2.20;;
1020;SDS011;499;42.648;23.270;2023-04-21T13:02:55;2.20;;;1.30;;
1020;SDS011;499;42.648;23.270;2023-04-21T13:05:22;1.90;;;1.40;;
1020;SDS011;499;42.648;23.270;2023-04-21T13:07:50;2.03;;;1.40;;
1020;SDS011;499;42.648;23.270;2023-04-21T13:10:18;1.97;;;1.53;;
1020;SDS011;499;42.648;23.270;2023-04-21T13:12:47;2.10;;;1.40;;
1020;SDS011;499;42.648;23.270;2023-04-21T13:15:14;3.30;;;1.83;;
1020;SDS011;499;42.648;23.270;2023-04-21T13:17:43;2.10;;;1.67;;
1020;SDS011;499;42.648;23.270;2023-04-21T13:20:10;1.80;;;1.53;;
1020;SDS011;499;42.648;23.270;2023-04-21T13:22:37;1.80;;;1.60;;
1020;SDS011;499;42.648;23.270;2023-04-21T13:25:04;1.67;;;1.23;;
1020;SDS011;499;42.648;23.270;2023-04-21T13:27:32;2.93;;;1.30;;
1020;SDS011;499;42.648;23.270;2023-04-21T13:30:04;1.73;;;1.57;;
1020;SDS011;499;42.648;23.270;2023-04-21T13:32:32;3.47;;;1.43;;
1020;SDS011;499;42.648;23.270;2023-04-21T13:35:00;4.13;;;1.70;;
1020;SDS011;499;42.648;23.270;2023-04-21T13:37:29;1.80;;;1.50;;
1020;SDS011;499;42.648;23.270;2023-04-21T13:39:56;2.27;;;1.50;;
1020;SDS011;499;42.648;23.270;2023-04-21T13:42:23;2.90;;;1.53;;
1020;SDS011;499;42.648;23.270;2023-04-21T13:44:50;1.90;;;1.40;;
1020;SDS011;499;42.648;23.270;2023-04-21T13:47:19;2.17;;;1.63;;
1020;SDS011;499;42.648;23.270;2023-04-21T13:49:46;1.77;;;1.57;;
1020;SDS011;499;42.648;23.270;2023-04-21T13:52:14;2.00;;;1.60;;
1020;SDS011;499;42.648;23.270;2023-04-21T13:54:46;1.70;;;1.30;;
1020;SDS011;499;42.648;23.270;2023-04-21T13:57:13;2.27;;;1.53;;
1020;SDS011;499;42.648;23.270;2023-04-21T13:59:40;1.90;;;1.13;;
1020;SDS011;499;42.648;23.270;2023-04-21T14:02:07;1.97;;;1.50;;
1020;SDS011;499;42.648;23.270;2023-04-21T14:04:36;1.60;;;1.20;;
1020;SDS011;499;42.648;23.270;2023-04-21T14:07:03;3.60;;;1.57;;
1020;SDS011;499;42.648;23.270;2023-04-21T14:09:32;2.83;;;2.30;;
1020;SDS011;499;42.648;23.270;2023-04-21T14:11:59;1.80;;;1.30;;
1020;SDS011;499;42.648;23.270;2023-04-21T14:14:27;3.80;;;1.17;;
1020;SDS011;499;42.648;23.270;2023-04-21T14:16:54;2.37;;;1.60;;
1020;SDS011;499;42.648;23.270;2023-04-21T14:19:21;2.13;;;1.80;;
1020;SDS011;499;42.648;23.270;2023-04-21T14:21:50;2.20;;;1.77;;
1020;SDS011;499;42.648;23.270;2023-04-21T14:24:17;1.70;;;1.47;;
1020;SDS011;499;42.648;23.270;2023-04-21T14:26:45;2.67;;;1.87;;
1020;SDS011;499;42.648;23.270;2023-04-21T14:29:12;2.37;;;1.37;;
1020;SDS011;499;42.648;23.270;2023-04-21T14:31:39;1.97;;;1.57;;
1020;SDS011;499;42.648;23.270;2023-04-21T14:34:06;2.30;;;1.67;;
1020;SDS011;499;42.648;23.270;2023-04-21T14:36:33;2.00;;;1.50;;
1020;SDS011;499;42.648;23.270;2023-04-21T14:39:03;2.33;;;1.67;;
1020;SDS011;499;42.648;23.270;2023-04-21T14:41:30;1.90;;;1.20;;
1020;SDS011;499;42.648;23.270;2023-04-21T14:43:58;3.03;;;1.27;;
1020;SDS011;499;42.648;23.270;2023-04-21T14:46:25;1.77;;;1.43;;
1020;SDS011;499;42.648;23.270;2023-04-21T14:48:53;2.20;;;1.50;;
1020;SDS011;499;42.648;23.270;2023-04-21T14:51:21;2.23;;;1.87;;
1020;SDS011;499;42.648;23.270;2023-04-21T14:53:48;1.77;;;1.30;;
1020;SDS011;499;42.648;23.270;2023-04-21T14:56:17;1.80;;;0.93;;
1020;SDS011;499;42.648;23.270;2023-04-21T14:58:44;2.07;;;1.53;;
1020;SDS011;499;42.648;23.270;2023-04-21T15:01:11;2.40;;;1.10;;
1020;SDS011;499;42.648;23.270;2023-04-21T15:03:38;2.27;;;1.70;;
1020;SDS011;499;42.648;23.270;2023-04-21T15:06:05;1.30;;;1.03;;
1020;SDS011;499;42.648;23.270;2023-04-21T15:08:32;1.83;;;1.40;;
1020;SDS011;499;42.648;23.270;2023-04-21T15:11:00;4.60;;;2.07;;
1020;SDS011;499;42.648;23.270;2023-04-21T15:13:28;2.40;;;1.73;;
1020;SDS011;499;42.648;23.270;2023-04-21T15:15:56;1.90;;;1.57;;
1020;SDS011;499;42.648;23.270;2023-04-21T15:18:23;3.00;;;1.90;;
1020;SDS011;499;42.648;23.270;2023-04-21T15:20:50;4.53;;;1.50;;
1020;SDS011;499;42.648;23.270;2023-04-21T15:23:17;2.00;;;1.50;;
1020;SDS011;499;42.648;23.270;2023-04-21T15:25:45;2.00;;;1.57;;
1020;SDS011;499;42.648;23.270;2023-04-21T15:28:12;1.67;;;1.30;;
1020;SDS011;499;42.648;23.270;2023-04-21T15:30:41;2.10;;;1.83;;